Broad Channel, New York
Current Conditions -  °F | °C
As of 11:51 PM on Friday 21 Nov 2014 (Local Time) from KJFK Reporting Station
Clear Clear  
Wind Chill: 24°   Ceiling: Unl
Heat Index: 29°   Visibility: 10mi
Dew Point: 10°   Wind: 5mph
Humidity: 45%   Direction: 280°W
Pressure: 30.52"   Gusts: NA
Location:  40.6184°N, 73.8256°W
Report Text: KJFK 220451Z 28004KT 10SM CLR M02/M12 A3052 RMK AO2 SLP335 T10171122 400331022
Loading
Personal Weather Stations






























Interactive Weather Map New forecast layout! Learn more

10-Day Weather Forecast

Advertisements
Track Severe Weather on mobile